< < Back
Terminal Aerodrome Forecast


Current Version              Previous Versions:   1  2  3  4  5  6  7  8  9  

Terminal Aerodrome Forecast

041
FTUS44 KMRX 242330
TAFTYS
TAF
KTYS 242330Z 2500/2524 25004KT P6SM BKN200
     FM250300 00000KT P6SM BKN250
     FM251500 23006KT P6SM SCT060 SCT150 BKN200=



Latest METAR

597
SAUS80 KWBC 252100 RRB
MTRTYS
METAR KTYS 252053Z 27007KT 240V310 10SM FEW045 FEW130 SCT250 36/18 A2998
RMK AO2 SLP136 CB DSNT NE AND DSNT SE T03560183 56022


USA.gov is the U.S. government's official web portal to all federal, state and local government web resources and services.